York Harbor, Maine
Current Conditions -  °F | °C
As of 9:58 PM on Wednesday 22 Oct 2014 (Local Time) from KPSM Reporting Station
Light Rain Light Rain  
Wind Chill: 42°   Ceiling: 700
Heat Index: 48°   Visibility: 5mi
Dew Point: 46°   Wind: 18mph
Humidity: 92%   Direction: 40°NE
Pressure: 29.92"   Gusts: 29mph
Location:  43.14°N, 70.65°W
Report Text: KPSM 230158Z 04016G25KT 5SM -RA BR FEW003 BKN007 OVC012 09/08 A2992 RMK AO2A PK WND 04028/39 SLP136 P0006 T00910079
Loading
Personal Weather Stations






























Interactive Weather Map
Tropical Storm Tracking
New forecast layout! Learn more

10-Day Weather Forecast

Advertisements
Track Severe Weather on mobile